sensor_id;sensor_type;location;lat;lon;timestamp;P1;durP1;ratioP1;P2;durP2;ratioP2
11588;SDS011;5850;51.360;12.362;2022-07-29T00:01:39;4.33;;;1.83;;
11588;SDS011;5850;51.360;12.362;2022-07-29T00:04:08;2.37;;;1.40;;
11588;SDS011;5850;51.360;12.362;2022-07-29T00:06:37;2.80;;;1.47;;
11588;SDS011;5850;51.360;12.362;2022-07-29T00:09:06;4.23;;;1.80;;
11588;SDS011;5850;51.360;12.362;2022-07-29T00:11:35;3.70;;;1.90;;
11588;SDS011;5850;51.360;12.362;2022-07-29T00:14:03;3.30;;;1.50;;
11588;SDS011;5850;51.360;12.362;2022-07-29T00:16:32;2.83;;;1.40;;
11588;SDS011;5850;51.360;12.362;2022-07-29T00:19:01;3.00;;;1.60;;
11588;SDS011;5850;51.360;12.362;2022-07-29T00:21:29;2.47;;;1.67;;
11588;SDS011;5850;51.360;12.362;2022-07-29T00:23:58;3.03;;;1.43;;
11588;SDS011;5850;51.360;12.362;2022-07-29T00:26:26;3.03;;;1.77;;
11588;SDS011;5850;51.360;12.362;2022-07-29T00:29:01;5.80;;;1.77;;
11588;SDS011;5850;51.360;12.362;2022-07-29T00:31:52;2.97;;;1.53;;
11588;SDS011;5850;51.360;12.362;2022-07-29T00:34:20;3.03;;;1.50;;
11588;SDS011;5850;51.360;12.362;2022-07-29T00:37:06;5.47;;;1.67;;
11588;SDS011;5850;51.360;12.362;2022-07-29T00:39:35;2.63;;;1.50;;
11588;SDS011;5850;51.360;12.362;2022-07-29T00:42:03;2.30;;;1.60;;
11588;SDS011;5850;51.360;12.362;2022-07-29T00:44:36;4.23;;;1.77;;
11588;SDS011;5850;51.360;12.362;2022-07-29T00:47:06;3.27;;;1.87;;
11588;SDS011;5850;51.360;12.362;2022-07-29T00:49:38;3.00;;;1.50;;
11588;SDS011;5850;51.360;12.362;2022-07-29T00:52:09;6.90;;;1.80;;
11588;SDS011;5850;51.360;12.362;2022-07-29T00:54:42;5.10;;;1.60;;
11588;SDS011;5850;51.360;12.362;2022-07-29T00:57:11;3.03;;;1.50;;
11588;SDS011;5850;51.360;12.362;2022-07-29T00:59:39;3.27;;;1.70;;
11588;SDS011;5850;51.360;12.362;2022-07-29T01:02:08;3.30;;;1.77;;
11588;SDS011;5850;51.360;12.362;2022-07-29T01:04:36;3.73;;;1.90;;
11588;SDS011;5850;51.360;12.362;2022-07-29T01:07:05;3.67;;;1.70;;
11588;SDS011;5850;51.360;12.362;2022-07-29T01:09:34;3.63;;;2.03;;
11588;SDS011;5850;51.360;12.362;2022-07-29T01:12:15;5.33;;;1.90;;
11588;SDS011;5850;51.360;12.362;2022-07-29T01:14:50;6.13;;;1.80;;
11588;SDS011;5850;51.360;12.362;2022-07-29T01:17:25;3.50;;;1.83;;
11588;SDS011;5850;51.360;12.362;2022-07-29T01:31:38;5.87;;;2.53;;
11588;SDS011;5850;51.360;12.362;2022-07-29T01:37:18;5.20;;;1.90;;
11588;SDS011;5850;51.360;12.362;2022-07-29T01:40:02;4.17;;;1.70;;
11588;SDS011;5850;51.360;12.362;2022-07-29T01:42:36;2.33;;;1.47;;
11588;SDS011;5850;51.360;12.362;2022-07-29T01:48:40;3.73;;;2.10;;
11588;SDS011;5850;51.360;12.362;2022-07-29T01:51:19;3.27;;;1.60;;
11588;SDS011;5850;51.360;12.362;2022-07-29T01:54:04;3.20;;;1.50;;
11588;SDS011;5850;51.360;12.362;2022-07-29T01:56:47;2.43;;;1.70;;
11588;SDS011;5850;51.360;12.362;2022-07-29T01:59:18;3.43;;;1.80;;
11588;SDS011;5850;51.360;12.362;2022-07-29T02:01:49;3.20;;;2.00;;
11588;SDS011;5850;51.360;12.362;2022-07-29T02:04:21;3.47;;;2.00;;
11588;SDS011;5850;51.360;12.362;2022-07-29T02:06:57;5.00;;;2.10;;
11588;SDS011;5850;51.360;12.362;2022-07-29T02:09:30;2.73;;;1.90;;
11588;SDS011;5850;51.360;12.362;2022-07-29T02:12:02;3.40;;;2.03;;
11588;SDS011;5850;51.360;12.362;2022-07-29T02:14:34;4.03;;;1.90;;
11588;SDS011;5850;51.360;12.362;2022-07-29T02:17:08;2.33;;;1.93;;
11588;SDS011;5850;51.360;12.362;2022-07-29T02:19:38;2.70;;;2.10;;
11588;SDS011;5850;51.360;12.362;2022-07-29T02:22:08;3.83;;;1.87;;
11588;SDS011;5850;51.360;12.362;2022-07-29T02:24:38;1.90;;;1.60;;
11588;SDS011;5850;51.360;12.362;2022-07-29T02:27:07;5.87;;;1.93;;
11588;SDS011;5850;51.360;12.362;2022-07-29T02:29:36;5.23;;;1.90;;
11588;SDS011;5850;51.360;12.362;2022-07-29T02:32:07;3.70;;;1.90;;
11588;SDS011;5850;51.360;12.362;2022-07-29T02:34:38;7.17;;;2.40;;
11588;SDS011;5850;51.360;12.362;2022-07-29T02:37:09;5.40;;;1.83;;
11588;SDS011;5850;51.360;12.362;2022-07-29T02:39:39;3.60;;;2.00;;
11588;SDS011;5850;51.360;12.362;2022-07-29T02:42:11;5.17;;;1.80;;
11588;SDS011;5850;51.360;12.362;2022-07-29T02:44:44;5.43;;;2.13;;
11588;SDS011;5850;51.360;12.362;2022-07-29T02:47:30;6.43;;;2.40;;
11588;SDS011;5850;51.360;12.362;2022-07-29T02:50:09;4.13;;;2.00;;
11588;SDS011;5850;51.360;12.362;2022-07-29T03:01:15;3.30;;;1.77;;
11588;SDS011;5850;51.360;12.362;2022-07-29T03:03:49;2.70;;;1.60;;
11588;SDS011;5850;51.360;12.362;2022-07-29T03:06:21;4.67;;;2.03;;
11588;SDS011;5850;51.360;12.362;2022-07-29T03:09:04;3.07;;;1.80;;
11588;SDS011;5850;51.360;12.362;2022-07-29T03:11:39;3.33;;;1.60;;
11588;SDS011;5850;51.360;12.362;2022-07-29T03:14:16;5.07;;;1.60;;
11588;SDS011;5850;51.360;12.362;2022-07-29T03:16:47;4.97;;;1.53;;
11588;SDS011;5850;51.360;12.362;2022-07-29T03:19:16;4.57;;;1.70;;
11588;SDS011;5850;51.360;12.362;2022-07-29T03:21:46;5.63;;;1.97;;
11588;SDS011;5850;51.360;12.362;2022-07-29T03:24:25;3.30;;;1.50;;
11588;SDS011;5850;51.360;12.362;2022-07-29T03:26:57;4.27;;;1.80;;
11588;SDS011;5850;51.360;12.362;2022-07-29T03:29:26;4.03;;;1.90;;
11588;SDS011;5850;51.360;12.362;2022-07-29T03:31:59;4.27;;;1.80;;
11588;SDS011;5850;51.360;12.362;2022-07-29T03:34:34;3.37;;;1.80;;
11588;SDS011;5850;51.360;12.362;2022-07-29T03:37:03;8.63;;;2.10;;
11588;SDS011;5850;51.360;12.362;2022-07-29T03:39:35;3.53;;;1.90;;
11588;SDS011;5850;51.360;12.362;2022-07-29T03:42:08;6.27;;;2.37;;
11588;SDS011;5850;51.360;12.362;2022-07-29T03:44:47;3.07;;;2.37;;
11588;SDS011;5850;51.360;12.362;2022-07-29T03:47:16;5.23;;;1.90;;
11588;SDS011;5850;51.360;12.362;2022-07-29T03:50:10;2.27;;;1.50;;
11588;SDS011;5850;51.360;12.362;2022-07-29T03:52:43;1.90;;;1.70;;
11588;SDS011;5850;51.360;12.362;2022-07-29T03:55:11;3.13;;;1.87;;
11588;SDS011;5850;51.360;12.362;2022-07-29T03:57:40;5.47;;;1.93;;
11588;SDS011;5850;51.360;12.362;2022-07-29T04:00:10;3.30;;;1.70;;
11588;SDS011;5850;51.360;12.362;2022-07-29T04:02:39;3.97;;;2.03;;
11588;SDS011;5850;51.360;12.362;2022-07-29T04:05:11;3.80;;;2.10;;
11588;SDS011;5850;51.360;12.362;2022-07-29T04:07:43;6.30;;;2.10;;
11588;SDS011;5850;51.360;12.362;2022-07-29T04:10:12;3.43;;;1.97;;
11588;SDS011;5850;51.360;12.362;2022-07-29T04:12:55;4.40;;;2.00;;
11588;SDS011;5850;51.360;12.362;2022-07-29T04:15:24;3.30;;;1.70;;
11588;SDS011;5850;51.360;12.362;2022-07-29T04:17:57;4.77;;;2.20;;
11588;SDS011;5850;51.360;12.362;2022-07-29T04:20:26;2.20;;;1.70;;
11588;SDS011;5850;51.360;12.362;2022-07-29T04:22:54;2.90;;;1.93;;
11588;SDS011;5850;51.360;12.362;2022-07-29T04:25:23;3.23;;;1.93;;
11588;SDS011;5850;51.360;12.362;2022-07-29T04:27:51;4.17;;;2.40;;
11588;SDS011;5850;51.360;12.362;2022-07-29T04:30:29;2.40;;;1.90;;
11588;SDS011;5850;51.360;12.362;2022-07-29T04:33:00;3.53;;;2.13;;
11588;SDS011;5850;51.360;12.362;2022-07-29T04:35:30;4.77;;;2.10;;
11588;SDS011;5850;51.360;12.362;2022-07-29T04:38:04;3.30;;;2.07;;
11588;SDS011;5850;51.360;12.362;2022-07-29T04:40:42;2.37;;;2.10;;
11588;SDS011;5850;51.360;12.362;2022-07-29T04:43:12;4.40;;;1.77;;
11588;SDS011;5850;51.360;12.362;2022-07-29T04:45:41;3.97;;;2.20;;
11588;SDS011;5850;51.360;12.362;2022-07-29T04:48:10;4.27;;;1.80;;
11588;SDS011;5850;51.360;12.362;2022-07-29T04:50:39;4.20;;;2.00;;
11588;SDS011;5850;51.360;12.362;2022-07-29T04:53:08;3.90;;;2.20;;
11588;SDS011;5850;51.360;12.362;2022-07-29T04:55:36;4.90;;;2.07;;
11588;SDS011;5850;51.360;12.362;2022-07-29T04:58:05;3.83;;;2.00;;
11588;SDS011;5850;51.360;12.362;2022-07-29T05:00:33;2.57;;;2.13;;
11588;SDS011;5850;51.360;12.362;2022-07-29T05:03:02;4.03;;;2.00;;
11588;SDS011;5850;51.360;12.362;2022-07-29T05:05:31;5.23;;;2.20;;
11588;SDS011;5850;51.360;12.362;2022-07-29T05:07:59;2.93;;;2.07;;
11588;SDS011;5850;51.360;12.362;2022-07-29T05:10:28;3.20;;;2.30;;
11588;SDS011;5850;51.360;12.362;2022-07-29T05:12:56;3.53;;;2.17;;
11588;SDS011;5850;51.360;12.362;2022-07-29T05:15:25;3.33;;;2.30;;
11588;SDS011;5850;51.360;12.362;2022-07-29T05:17:53;2.23;;;2.00;;
11588;SDS011;5850;51.360;12.362;2022-07-29T05:20:22;3.53;;;2.30;;
11588;SDS011;5850;51.360;12.362;2022-07-29T05:22:57;2.23;;;2.03;;
11588;SDS011;5850;51.360;12.362;2022-07-29T05:25:27;4.13;;;2.10;;
11588;SDS011;5850;51.360;12.362;2022-07-29T05:28:10;3.27;;;2.10;;
11588;SDS011;5850;51.360;12.362;2022-07-29T05:30:38;4.43;;;2.10;;
11588;SDS011;5850;51.360;12.362;2022-07-29T05:33:07;3.33;;;1.90;;
11588;SDS011;5850;51.360;12.362;2022-07-29T05:35:55;4.27;;;2.97;;
11588;SDS011;5850;51.360;12.362;2022-07-29T05:38:26;4.13;;;2.37;;
11588;SDS011;5850;51.360;12.362;2022-07-29T05:40:56;3.80;;;1.93;;
11588;SDS011;5850;51.360;12.362;2022-07-29T05:43:26;2.73;;;2.17;;
11588;SDS011;5850;51.360;12.362;2022-07-29T05:45:55;6.50;;;2.63;;
11588;SDS011;5850;51.360;12.362;2022-07-29T05:48:24;6.27;;;2.40;;
11588;SDS011;5850;51.360;12.362;2022-07-29T05:50:52;3.93;;;2.17;;
11588;SDS011;5850;51.360;12.362;2022-07-29T05:53:22;7.33;;;2.43;;
11588;SDS011;5850;51.360;12.362;2022-07-29T05:55:50;5.33;;;2.53;;
11588;SDS011;5850;51.360;12.362;2022-07-29T05:58:19;4.23;;;2.23;;
11588;SDS011;5850;51.360;12.362;2022-07-29T06:00:48;6.37;;;2.40;;
11588;SDS011;5850;51.360;12.362;2022-07-29T06:03:16;11.40;;;2.60;;
11588;SDS011;5850;51.360;12.362;2022-07-29T06:05:45;11.73;;;2.40;;
11588;SDS011;5850;51.360;12.362;2022-07-29T06:08:13;7.30;;;2.23;;
11588;SDS011;5850;51.360;12.362;2022-07-29T06:10:42;5.63;;;2.57;;
11588;SDS011;5850;51.360;12.362;2022-07-29T06:13:10;8.03;;;2.17;;
11588;SDS011;5850;51.360;12.362;2022-07-29T06:15:39;8.43;;;2.07;;
11588;SDS011;5850;51.360;12.362;2022-07-29T06:18:08;6.10;;;2.83;;
11588;SDS011;5850;51.360;12.362;2022-07-29T06:20:36;7.30;;;3.17;;
11588;SDS011;5850;51.360;12.362;2022-07-29T06:23:05;4.97;;;2.53;;
11588;SDS011;5850;51.360;12.362;2022-07-29T06:25:33;6.70;;;2.70;;
11588;SDS011;5850;51.360;12.362;2022-07-29T06:28:03;3.80;;;2.40;;
11588;SDS011;5850;51.360;12.362;2022-07-29T06:30:31;8.53;;;2.70;;
11588;SDS011;5850;51.360;12.362;2022-07-29T06:33:00;8.53;;;3.10;;
11588;SDS011;5850;51.360;12.362;2022-07-29T06:35:28;7.13;;;4.00;;
11588;SDS011;5850;51.360;12.362;2022-07-29T06:38:07;5.20;;;2.63;;
11588;SDS011;5850;51.360;12.362;2022-07-29T06:40:57;6.00;;;2.57;;
11588;SDS011;5850;51.360;12.362;2022-07-29T06:43:34;6.77;;;3.10;;
11588;SDS011;5850;51.360;12.362;2022-07-29T06:46:18;5.93;;;2.93;;
11588;SDS011;5850;51.360;12.362;2022-07-29T06:48:47;11.67;;;2.57;;
11588;SDS011;5850;51.360;12.362;2022-07-29T06:51:16;8.20;;;2.87;;
11588;SDS011;5850;51.360;12.362;2022-07-29T06:53:48;3.10;;;2.30;;
11588;SDS011;5850;51.360;12.362;2022-07-29T06:56:28;6.87;;;2.70;;
11588;SDS011;5850;51.360;12.362;2022-07-29T06:59:05;5.77;;;2.60;;
11588;SDS011;5850;51.360;12.362;2022-07-29T07:01:35;4.97;;;2.60;;
11588;SDS011;5850;51.360;12.362;2022-07-29T07:04:05;7.13;;;2.53;;
11588;SDS011;5850;51.360;12.362;2022-07-29T07:06:35;3.80;;;2.40;;
11588;SDS011;5850;51.360;12.362;2022-07-29T07:09:04;4.20;;;2.70;;
11588;SDS011;5850;51.360;12.362;2022-07-29T07:11:32;5.00;;;2.80;;
11588;SDS011;5850;51.360;12.362;2022-07-29T07:14:01;5.70;;;2.53;;
11588;SDS011;5850;51.360;12.362;2022-07-29T07:16:30;6.63;;;2.40;;
11588;SDS011;5850;51.360;12.362;2022-07-29T07:18:59;7.17;;;2.77;;
11588;SDS011;5850;51.360;12.362;2022-07-29T07:21:28;4.47;;;2.50;;
11588;SDS011;5850;51.360;12.362;2022-07-29T07:23:57;7.43;;;2.43;;
11588;SDS011;5850;51.360;12.362;2022-07-29T07:26:27;5.30;;;3.03;;
11588;SDS011;5850;51.360;12.362;2022-07-29T07:28:56;5.17;;;3.20;;
11588;SDS011;5850;51.360;12.362;2022-07-29T07:31:25;6.80;;;3.20;;
11588;SDS011;5850;51.360;12.362;2022-07-29T07:33:54;6.53;;;3.90;;
11588;SDS011;5850;51.360;12.362;2022-07-29T07:36:22;9.17;;;2.97;;
11588;SDS011;5850;51.360;12.362;2022-07-29T07:38:51;5.70;;;2.60;;
11588;SDS011;5850;51.360;12.362;2022-07-29T07:41:19;7.13;;;3.20;;
11588;SDS011;5850;51.360;12.362;2022-07-29T07:43:48;5.07;;;3.63;;
11588;SDS011;5850;51.360;12.362;2022-07-29T07:46:17;12.17;;;2.97;;
11588;SDS011;5850;51.360;12.362;2022-07-29T07:48:47;6.40;;;3.00;;
11588;SDS011;5850;51.360;12.362;2022-07-29T07:51:16;5.83;;;3.00;;
11588;SDS011;5850;51.360;12.362;2022-07-29T07:53:44;5.97;;;3.60;;
11588;SDS011;5850;51.360;12.362;2022-07-29T07:56:16;9.23;;;3.50;;
11588;SDS011;5850;51.360;12.362;2022-07-29T07:58:44;17.67;;;4.03;;
11588;SDS011;5850;51.360;12.362;2022-07-29T08:01:13;7.63;;;3.90;;
11588;SDS011;5850;51.360;12.362;2022-07-29T08:03:45;11.03;;;8.80;;
11588;SDS011;5850;51.360;12.362;2022-07-29T08:06:13;8.23;;;3.83;;
11588;SDS011;5850;51.360;12.362;2022-07-29T08:08:42;6.30;;;4.30;;
11588;SDS011;5850;51.360;12.362;2022-07-29T08:11:10;7.13;;;3.47;;
11588;SDS011;5850;51.360;12.362;2022-07-29T08:13:39;11.13;;;4.10;;
11588;SDS011;5850;51.360;12.362;2022-07-29T08:16:07;7.50;;;3.50;;
11588;SDS011;5850;51.360;12.362;2022-07-29T08:18:40;6.03;;;3.43;;
11588;SDS011;5850;51.360;12.362;2022-07-29T08:21:10;8.57;;;4.13;;
11588;SDS011;5850;51.360;12.362;2022-07-29T08:23:40;6.83;;;3.33;;
11588;SDS011;5850;51.360;12.362;2022-07-29T08:26:26;7.50;;;3.53;;
11588;SDS011;5850;51.360;12.362;2022-07-29T08:28:54;7.20;;;3.40;;
11588;SDS011;5850;51.360;12.362;2022-07-29T08:31:22;5.67;;;3.57;;
11588;SDS011;5850;51.360;12.362;2022-07-29T08:33:51;3.80;;;2.90;;
11588;SDS011;5850;51.360;12.362;2022-07-29T08:36:19;10.13;;;3.40;;
11588;SDS011;5850;51.360;12.362;2022-07-29T08:38:48;14.90;;;11.57;;
11588;SDS011;5850;51.360;12.362;2022-07-29T08:41:18;9.17;;;3.83;;
11588;SDS011;5850;51.360;12.362;2022-07-29T08:43:50;5.73;;;3.10;;
11588;SDS011;5850;51.360;12.362;2022-07-29T08:46:19;8.83;;;3.37;;
11588;SDS011;5850;51.360;12.362;2022-07-29T08:48:49;6.17;;;3.00;;
11588;SDS011;5850;51.360;12.362;2022-07-29T08:51:18;8.33;;;3.13;;
11588;SDS011;5850;51.360;12.362;2022-07-29T08:53:47;6.40;;;3.10;;
11588;SDS011;5850;51.360;12.362;2022-07-29T08:56:17;10.40;;;3.00;;
11588;SDS011;5850;51.360;12.362;2022-07-29T08:58:48;8.10;;;3.40;;
11588;SDS011;5850;51.360;12.362;2022-07-29T09:01:22;4.23;;;2.60;;
11588;SDS011;5850;51.360;12.362;2022-07-29T09:04:02;7.63;;;2.90;;
11588;SDS011;5850;51.360;12.362;2022-07-29T09:06:34;6.50;;;3.00;;
11588;SDS011;5850;51.360;12.362;2022-07-29T09:09:07;7.23;;;3.07;;
11588;SDS011;5850;51.360;12.362;2022-07-29T09:11:36;5.03;;;3.10;;
11588;SDS011;5850;51.360;12.362;2022-07-29T09:14:04;6.47;;;3.03;;
11588;SDS011;5850;51.360;12.362;2022-07-29T09:16:46;7.47;;;3.07;;
11588;SDS011;5850;51.360;12.362;2022-07-29T09:19:30;8.10;;;3.40;;
11588;SDS011;5850;51.360;12.362;2022-07-29T09:22:02;5.73;;;3.60;;
11588;SDS011;5850;51.360;12.362;2022-07-29T09:24:45;7.60;;;3.93;;
11588;SDS011;5850;51.360;12.362;2022-07-29T09:30:07;11.87;;;4.30;;
11588;SDS011;5850;51.360;12.362;2022-07-29T09:33:00;8.90;;;4.17;;
11588;SDS011;5850;51.360;12.362;2022-07-29T09:35:30;9.77;;;4.00;;
11588;SDS011;5850;51.360;12.362;2022-07-29T09:38:09;9.93;;;4.00;;
11588;SDS011;5850;51.360;12.362;2022-07-29T09:40:41;7.87;;;4.00;;
11588;SDS011;5850;51.360;12.362;2022-07-29T09:43:10;7.67;;;4.97;;
11588;SDS011;5850;51.360;12.362;2022-07-29T09:45:40;6.03;;;4.03;;
11588;SDS011;5850;51.360;12.362;2022-07-29T09:48:15;4.73;;;3.53;;
11588;SDS011;5850;51.360;12.362;2022-07-29T09:50:48;7.23;;;4.00;;
11588;SDS011;5850;51.360;12.362;2022-07-29T09:56:00;8.23;;;3.80;;
11588;SDS011;5850;51.360;12.362;2022-07-29T09:58:29;5.77;;;3.73;;
11588;SDS011;5850;51.360;12.362;2022-07-29T10:00:59;4.20;;;3.20;;
11588;SDS011;5850;51.360;12.362;2022-07-29T10:03:28;5.03;;;3.40;;
11588;SDS011;5850;51.360;12.362;2022-07-29T10:06:06;7.07;;;3.50;;
11588;SDS011;5850;51.360;12.362;2022-07-29T10:08:39;7.10;;;4.07;;
11588;SDS011;5850;51.360;12.362;2022-07-29T10:13:40;7.57;;;3.23;;
11588;SDS011;5850;51.360;12.362;2022-07-29T10:16:10;7.23;;;3.70;;
11588;SDS011;5850;51.360;12.362;2022-07-29T10:18:39;6.13;;;3.30;;
11588;SDS011;5850;51.360;12.362;2022-07-29T10:21:13;7.37;;;3.37;;
11588;SDS011;5850;51.360;12.362;2022-07-29T10:24:01;5.27;;;3.30;;
11588;SDS011;5850;51.360;12.362;2022-07-29T10:26:30;6.13;;;3.53;;
11588;SDS011;5850;51.360;12.362;2022-07-29T10:28:58;4.73;;;3.03;;
11588;SDS011;5850;51.360;12.362;2022-07-29T10:32:19;5.67;;;3.40;;
11588;SDS011;5850;51.360;12.362;2022-07-29T10:37:37;7.93;;;3.20;;
11588;SDS011;5850;51.360;12.362;2022-07-29T10:40:47;5.50;;;2.83;;
11588;SDS011;5850;51.360;12.362;2022-07-29T10:44:12;3.70;;;3.00;;
11588;SDS011;5850;51.360;12.362;2022-07-29T10:46:49;4.53;;;3.00;;
11588;SDS011;5850;51.360;12.362;2022-07-29T10:49:20;4.73;;;2.77;;
11588;SDS011;5850;51.360;12.362;2022-07-29T11:02:43;3.30;;;2.80;;
11588;SDS011;5850;51.360;12.362;2022-07-29T11:05:16;5.93;;;2.97;;
11588;SDS011;5850;51.360;12.362;2022-07-29T11:10:46;6.33;;;2.40;;
11588;SDS011;5850;51.360;12.362;2022-07-29T11:16:22;3.70;;;2.50;;
11588;SDS011;5850;51.360;12.362;2022-07-29T11:21:51;6.40;;;3.00;;
11588;SDS011;5850;51.360;12.362;2022-07-29T11:32:24;4.00;;;2.50;;
11588;SDS011;5850;51.360;12.362;2022-07-29T11:35:11;3.73;;;2.60;;
11588;SDS011;5850;51.360;12.362;2022-07-29T11:37:43;3.57;;;2.60;;
11588;SDS011;5850;51.360;12.362;2022-07-29T11:40:20;4.27;;;2.63;;
11588;SDS011;5850;51.360;12.362;2022-07-29T11:42:49;10.00;;;3.77;;
11588;SDS011;5850;51.360;12.362;2022-07-29T11:45:21;6.30;;;3.60;;
11588;SDS011;5850;51.360;12.362;2022-07-29T11:48:14;3.47;;;2.70;;
11588;SDS011;5850;51.360;12.362;2022-07-29T11:50:56;5.73;;;3.50;;
11588;SDS011;5850;51.360;12.362;2022-07-29T11:53:26;8.73;;;2.80;;
11588;SDS011;5850;51.360;12.362;2022-07-29T11:55:58;4.23;;;2.60;;
11588;SDS011;5850;51.360;12.362;2022-07-29T11:58:29;3.60;;;3.23;;
11588;SDS011;5850;51.360;12.362;2022-07-29T12:00:57;5.50;;;3.13;;
11588;SDS011;5850;51.360;12.362;2022-07-29T12:03:30;3.53;;;2.87;;
11588;SDS011;5850;51.360;12.362;2022-07-29T12:06:02;5.13;;;2.87;;
11588;SDS011;5850;51.360;12.362;2022-07-29T12:08:42;5.43;;;3.13;;
11588;SDS011;5850;51.360;12.362;2022-07-29T12:11:16;7.07;;;3.00;;
11588;SDS011;5850;51.360;12.362;2022-07-29T12:13:49;5.27;;;3.00;;
11588;SDS011;5850;51.360;12.362;2022-07-29T12:16:21;4.97;;;3.03;;
11588;SDS011;5850;51.360;12.362;2022-07-29T12:19:00;3.83;;;2.80;;
11588;SDS011;5850;51.360;12.362;2022-07-29T12:24:42;8.93;;;3.30;;
11588;SDS011;5850;51.360;12.362;2022-07-29T12:27:11;8.00;;;3.23;;
11588;SDS011;5850;51.360;12.362;2022-07-29T12:29:40;4.30;;;3.73;;
11588;SDS011;5850;51.360;12.362;2022-07-29T12:32:14;6.57;;;3.10;;
11588;SDS011;5850;51.360;12.362;2022-07-29T12:34:45;5.37;;;3.10;;
11588;SDS011;5850;51.360;12.362;2022-07-29T12:37:13;5.13;;;3.50;;
11588;SDS011;5850;51.360;12.362;2022-07-29T12:39:42;6.30;;;3.10;;
11588;SDS011;5850;51.360;12.362;2022-07-29T12:42:12;4.37;;;3.20;;
11588;SDS011;5850;51.360;12.362;2022-07-29T12:44:44;6.07;;;3.77;;
11588;SDS011;5850;51.360;12.362;2022-07-29T12:47:15;5.17;;;3.30;;
11588;SDS011;5850;51.360;12.362;2022-07-29T12:49:46;5.07;;;3.53;;
11588;SDS011;5850;51.360;12.362;2022-07-29T12:55:01;4.67;;;3.30;;
11588;SDS011;5850;51.360;12.362;2022-07-29T12:57:30;3.77;;;2.43;;
11588;SDS011;5850;51.360;12.362;2022-07-29T13:02:37;4.50;;;3.07;;
11588;SDS011;5850;51.360;12.362;2022-07-29T13:05:07;8.57;;;3.83;;
11588;SDS011;5850;51.360;12.362;2022-07-29T13:07:39;5.93;;;3.30;;
11588;SDS011;5850;51.360;12.362;2022-07-29T13:10:27;3.93;;;3.07;;
11588;SDS011;5850;51.360;12.362;2022-07-29T13:13:02;6.33;;;2.90;;
11588;SDS011;5850;51.360;12.362;2022-07-29T13:15:43;6.53;;;3.33;;
11588;SDS011;5850;51.360;12.362;2022-07-29T13:18:33;6.37;;;3.17;;
11588;SDS011;5850;51.360;12.362;2022-07-29T13:21:12;3.97;;;2.93;;
11588;SDS011;5850;51.360;12.362;2022-07-29T13:23:44;4.90;;;3.17;;
11588;SDS011;5850;51.360;12.362;2022-07-29T13:26:12;3.93;;;2.77;;
11588;SDS011;5850;51.360;12.362;2022-07-29T13:28:42;3.80;;;2.83;;
11588;SDS011;5850;51.360;12.362;2022-07-29T13:31:10;7.00;;;3.33;;
11588;SDS011;5850;51.360;12.362;2022-07-29T13:33:38;8.40;;;3.58;;
11588;SDS011;5850;51.360;12.362;2022-07-29T13:36:06;7.38;;;3.17;;
11588;SDS011;5850;51.360;12.362;2022-07-29T13:38:34;4.15;;;2.92;;
11588;SDS011;5850;51.360;12.362;2022-07-29T13:41:03;4.28;;;3.22;;
11588;SDS011;5850;51.360;12.362;2022-07-29T13:43:32;4.18;;;3.17;;
11588;SDS011;5850;51.360;12.362;2022-07-29T13:46:00;8.98;;;3.83;;
11588;SDS011;5850;51.360;12.362;2022-07-29T13:48:29;3.40;;;3.10;;
11588;SDS011;5850;51.360;12.362;2022-07-29T13:50:57;4.47;;;3.20;;
11588;SDS011;5850;51.360;12.362;2022-07-29T13:53:25;4.70;;;2.85;;
11588;SDS011;5850;51.360;12.362;2022-07-29T13:55:54;3.35;;;3.05;;
11588;SDS011;5850;51.360;12.362;2022-07-29T13:58:22;4.18;;;3.15;;
11588;SDS011;5850;51.360;12.362;2022-07-29T14:00:50;4.25;;;2.97;;
11588;SDS011;5850;51.360;12.362;2022-07-29T14:03:19;5.93;;;3.50;;
11588;SDS011;5850;51.360;12.362;2022-07-29T14:05:47;3.45;;;3.15;;
11588;SDS011;5850;51.360;12.362;2022-07-29T14:08:15;4.68;;;3.33;;
11588;SDS011;5850;51.360;12.362;2022-07-29T14:10:43;3.97;;;3.58;;
11588;SDS011;5850;51.360;12.362;2022-07-29T14:13:12;5.90;;;3.50;;
11588;SDS011;5850;51.360;12.362;2022-07-29T14:15:50;5.85;;;3.30;;
11588;SDS011;5850;51.360;12.362;2022-07-29T14:18:19;5.72;;;3.42;;
11588;SDS011;5850;51.360;12.362;2022-07-29T14:20:47;3.58;;;3.00;;
11588;SDS011;5850;51.360;12.362;2022-07-29T14:23:17;4.82;;;3.38;;
11588;SDS011;5850;51.360;12.362;2022-07-29T14:25:45;5.25;;;3.67;;
11588;SDS011;5850;51.360;12.362;2022-07-29T14:28:14;8.38;;;3.53;;
11588;SDS011;5850;51.360;12.362;2022-07-29T14:30:43;5.20;;;3.40;;
11588;SDS011;5850;51.360;12.362;2022-07-29T14:33:11;7.18;;;3.67;;
11588;SDS011;5850;51.360;12.362;2022-07-29T14:35:40;5.23;;;3.30;;
11588;SDS011;5850;51.360;12.362;2022-07-29T14:38:08;4.80;;;3.10;;
11588;SDS011;5850;51.360;12.362;2022-07-29T14:40:36;5.73;;;3.47;;
11588;SDS011;5850;51.360;12.362;2022-07-29T14:43:05;4.17;;;3.30;;
11588;SDS011;5850;51.360;12.362;2022-07-29T14:45:34;3.10;;;2.80;;
11588;SDS011;5850;51.360;12.362;2022-07-29T14:48:03;6.77;;;3.73;;
11588;SDS011;5850;51.360;12.362;2022-07-29T14:50:31;5.07;;;3.23;;
11588;SDS011;5850;51.360;12.362;2022-07-29T14:52:59;7.37;;;3.53;;
11588;SDS011;5850;51.360;12.362;2022-07-29T14:55:28;7.03;;;3.27;;
11588;SDS011;5850;51.360;12.362;2022-07-29T14:57:56;11.73;;;3.23;;
11588;SDS011;5850;51.360;12.362;2022-07-29T15:00:37;4.40;;;3.07;;
11588;SDS011;5850;51.360;12.362;2022-07-29T15:03:05;8.30;;;3.97;;
11588;SDS011;5850;51.360;12.362;2022-07-29T15:05:36;5.27;;;3.63;;
11588;SDS011;5850;51.360;12.362;2022-07-29T15:08:04;6.87;;;3.67;;
11588;SDS011;5850;51.360;12.362;2022-07-29T15:10:34;6.83;;;3.53;;
11588;SDS011;5850;51.360;12.362;2022-07-29T15:13:02;5.63;;;3.40;;
11588;SDS011;5850;51.360;12.362;2022-07-29T15:15:31;5.87;;;3.67;;
11588;SDS011;5850;51.360;12.362;2022-07-29T15:17:59;5.77;;;3.87;;
11588;SDS011;5850;51.360;12.362;2022-07-29T15:20:28;6.47;;;3.67;;
11588;SDS011;5850;51.360;12.362;2022-07-29T15:22:56;6.93;;;3.00;;
11588;SDS011;5850;51.360;12.362;2022-07-29T15:25:25;6.20;;;3.07;;
11588;SDS011;5850;51.360;12.362;2022-07-29T15:27:54;6.27;;;3.90;;
11588;SDS011;5850;51.360;12.362;2022-07-29T15:30:27;4.27;;;3.20;;
11588;SDS011;5850;51.360;12.362;2022-07-29T15:33:00;7.60;;;3.80;;
11588;SDS011;5850;51.360;12.362;2022-07-29T15:35:31;4.63;;;3.57;;
11588;SDS011;5850;51.360;12.362;2022-07-29T15:38:05;4.15;;;3.75;;
11588;SDS011;5850;51.360;12.362;2022-07-29T15:40:36;7.40;;;4.27;;
11588;SDS011;5850;51.360;12.362;2022-07-29T15:43:07;5.70;;;3.58;;
11588;SDS011;5850;51.360;12.362;2022-07-29T15:45:39;5.53;;;4.17;;
11588;SDS011;5850;51.360;12.362;2022-07-29T15:48:29;8.23;;;3.73;;
11588;SDS011;5850;51.360;12.362;2022-07-29T15:50:59;6.23;;;3.87;;
11588;SDS011;5850;51.360;12.362;2022-07-29T15:53:27;7.53;;;3.78;;
11588;SDS011;5850;51.360;12.362;2022-07-29T15:55:57;4.43;;;3.87;;
11588;SDS011;5850;51.360;12.362;2022-07-29T15:58:26;4.03;;;3.20;;
11588;SDS011;5850;51.360;12.362;2022-07-29T16:00:54;4.57;;;3.00;;
11588;SDS011;5850;51.360;12.362;2022-07-29T16:03:22;3.00;;;2.70;;
11588;SDS011;5850;51.360;12.362;2022-07-29T16:05:51;2.83;;;2.50;;
11588;SDS011;5850;51.360;12.362;2022-07-29T16:08:20;2.90;;;2.70;;
11588;SDS011;5850;51.360;12.362;2022-07-29T16:10:48;4.97;;;2.97;;
11588;SDS011;5850;51.360;12.362;2022-07-29T16:13:17;3.50;;;2.90;;
11588;SDS011;5850;51.360;12.362;2022-07-29T16:15:46;5.90;;;3.00;;
11588;SDS011;5850;51.360;12.362;2022-07-29T16:18:28;3.73;;;2.80;;
11588;SDS011;5850;51.360;12.362;2022-07-29T16:20:56;3.20;;;2.80;;
11588;SDS011;5850;51.360;12.362;2022-07-29T16:23:25;4.73;;;3.13;;
11588;SDS011;5850;51.360;12.362;2022-07-29T16:25:54;4.10;;;3.00;;
11588;SDS011;5850;51.360;12.362;2022-07-29T16:28:25;4.63;;;3.00;;
11588;SDS011;5850;51.360;12.362;2022-07-29T16:30:55;4.23;;;3.03;;